createdAt,value
2019-01-02T00:00:21.314Z,101531.81
2019-01-02T00:02:50.817Z,101536.08
2019-01-02T00:05:20.847Z,101536.08
2019-01-02T00:07:50.658Z,101538.70
2019-01-02T00:10:19.886Z,101534.56
2019-01-02T00:12:49.046Z,101536.17
2019-01-02T00:15:18.836Z,101538.56
2019-01-02T00:17:48.795Z,101542.34
2019-01-02T00:20:18.308Z,101559.91
2019-01-02T00:22:47.443Z,101556.59
2019-01-02T00:25:16.713Z,101558.20
2019-01-02T00:27:45.876Z,101597.32
2019-01-02T00:30:15.177Z,101600.36
2019-01-02T00:32:44.503Z,101597.83
2019-01-02T00:35:13.683Z,101604.08
2019-01-02T00:37:43.064Z,101608.36
2019-01-02T00:40:12.495Z,101621.30
2019-01-02T00:42:42.158Z,101632.42
2019-01-02T00:45:11.476Z,101630.16
2019-01-02T00:47:40.902Z,101634.66
2019-01-02T00:50:11.797Z,101620.34
2019-01-02T00:52:41.041Z,101621.20
2019-01-02T00:55:10.647Z,101614.69
2019-01-02T00:57:40.547Z,101628.19
2019-01-02T01:00:14.404Z,101627.28
2019-01-02T01:02:43.720Z,101635.94
2019-01-02T01:05:12.974Z,101628.98
2019-01-02T01:07:44.223Z,101635.12
2019-01-02T01:10:15.489Z,101637.12
2019-01-02T01:12:44.878Z,101622.12
2019-01-02T01:15:14.005Z,101639.27
2019-01-02T01:17:43.513Z,101625.41
2019-01-02T01:20:15.472Z,101621.33
2019-01-02T01:22:44.595Z,101617.44
2019-01-02T01:25:13.842Z,101633.16
2019-01-02T01:27:43.053Z,101634.09
2019-01-02T01:30:12.983Z,101628.66
2019-01-02T01:32:42.255Z,101636.88
2019-01-02T01:35:13.822Z,101634.09
2019-01-02T01:37:48.804Z,101655.66
2019-01-02T01:40:18.051Z,101633.85
2019-01-02T01:42:47.135Z,101633.85
2019-01-02T01:45:16.388Z,101630.84
2019-01-02T01:47:45.485Z,101625.41
2019-01-02T01:50:15.010Z,101632.86
2019-01-02T01:52:44.135Z,101623.98
2019-01-02T01:55:13.227Z,101617.39
2019-01-02T01:57:42.876Z,101627.41
2019-01-02T02:00:14.670Z,101620.44
2019-01-02T02:02:43.747Z,101627.67
2019-01-02T02:05:12.823Z,101629.22
2019-01-02T02:07:42.218Z,101628.95
2019-01-02T02:10:14.345Z,101617.72
2019-01-02T02:12:43.697Z,101626.17
2019-01-02T02:15:12.844Z,101612.27
2019-01-02T02:17:42.875Z,101608.97
2019-01-02T02:20:13.516Z,101615.36
2019-01-02T02:22:42.724Z,101603.66
2019-01-02T02:25:29.260Z,101616.43
2019-01-02T02:27:58.370Z,101627.73
2019-01-02T02:30:28.809Z,101632.80
2019-01-02T02:32:57.898Z,101621.04
2019-01-02T02:35:27.894Z,101628.41
2019-01-02T02:37:57.474Z,101629.02
2019-01-02T02:40:26.565Z,101626.02
2019-01-02T02:42:55.633Z,101627.88
2019-01-02T02:45:25.107Z,101641.39
2019-01-02T02:47:55.034Z,101649.16
2019-01-02T02:50:24.419Z,101662.67
2019-01-02T02:52:53.808Z,101667.44
2019-01-02T02:55:25.500Z,101670.83
2019-01-02T02:57:54.624Z,101674.66
2019-01-02T03:00:23.935Z,101672.98
2019-01-02T03:02:53.229Z,101672.86
2019-01-02T03:05:22.489Z,101678.48
2019-01-02T03:07:52.469Z,101675.86
2019-01-02T03:10:21.817Z,101675.03
2019-01-02T03:12:51.400Z,101680.06
2019-01-02T03:15:20.843Z,101674.41
2019-01-02T03:17:49.899Z,101663.38
2019-01-02T03:20:18.955Z,101678.86
2019-01-02T03:22:47.988Z,101679.55
2019-01-02T03:25:17.523Z,101676.34
2019-01-02T03:27:47.451Z,101691.77
2019-01-02T03:30:18.987Z,101683.37
2019-01-02T03:32:48.688Z,101681.95
2019-01-02T03:35:18.088Z,101683.41
2019-01-02T03:37:47.310Z,101687.52
2019-01-02T03:40:16.337Z,101696.06
2019-01-02T03:42:45.549Z,101696.95
2019-01-02T03:45:17.310Z,101694.80
2019-01-02T03:47:46.578Z,101689.99
2019-01-02T03:50:17.474Z,101692.30
2019-01-02T03:52:46.546Z,101701.16
2019-01-02T03:55:15.650Z,101696.80
2019-01-02T03:57:44.828Z,101708.28
2019-01-02T04:00:16.125Z,101702.36
2019-01-02T04:02:45.362Z,101701.61
2019-01-02T04:05:17.479Z,101711.03
2019-01-02T04:07:50.025Z,101705.72
2019-01-02T04:10:19.108Z,101709.48
2019-01-02T04:12:48.182Z,101711.16
2019-01-02T04:15:17.222Z,101709.35
2019-01-02T04:17:46.439Z,101728.05
2019-01-02T04:20:15.674Z,101720.08
2019-01-02T04:22:46.636Z,101719.70
2019-01-02T04:25:16.021Z,101723.09
2019-01-02T04:27:45.306Z,101720.17
2019-01-02T04:30:15.534Z,101721.76
2019-01-02T04:32:44.706Z,101716.76
2019-01-02T04:35:13.853Z,101703.34
2019-01-02T04:37:43.137Z,101700.05
2019-01-02T04:40:13.452Z,101702.95
2019-01-02T04:42:42.487Z,101691.59
2019-01-02T04:45:12.003Z,101687.27
2019-01-02T04:47:41.254Z,101692.23
2019-01-02T04:50:15.026Z,101697.80
2019-01-02T04:52:44.266Z,101700.20
2019-01-02T04:55:13.533Z,101705.05
2019-01-02T04:57:42.681Z,101702.65
2019-01-02T05:00:14.369Z,101699.39
2019-01-02T05:02:45.977Z,101700.20
2019-01-02T05:05:15.296Z,101709.98
2019-01-02T05:07:44.988Z,101708.19
2019-01-02T05:10:15.065Z,101708.91
2019-01-02T05:12:44.117Z,101710.75
2019-01-02T05:15:13.188Z,101716.16
2019-01-02T05:17:42.354Z,101715.30
2019-01-02T05:20:13.887Z,101718.91
2019-01-02T05:22:43.091Z,101709.25
2019-01-02T05:25:12.155Z,101709.77
2019-01-02T05:27:41.245Z,101717.77
2019-01-02T05:30:13.436Z,101715.30
2019-01-02T05:32:42.537Z,101729.32
2019-01-02T05:35:11.910Z,101727.86
2019-01-02T05:37:40.951Z,101727.52
2019-01-02T05:40:13.161Z,101727.26
2019-01-02T05:42:42.426Z,101726.19
2019-01-02T05:45:11.657Z,101722.73
2019-01-02T05:47:41.016Z,101721.81
2019-01-02T05:50:10.299Z,101725.11
2019-01-02T05:52:39.355Z,101731.25
2019-01-02T05:55:08.740Z,101737.89
2019-01-02T05:57:37.815Z,101727.39
2019-01-02T06:00:08.168Z,101727.55
2019-01-02T06:02:37.211Z,101734.56
2019-01-02T06:05:06.268Z,101722.89
2019-01-02T06:07:35.698Z,101722.29
2019-01-02T06:10:05.248Z,101722.29
2019-01-02T06:12:34.907Z,101718.75
2019-01-02T06:15:04.274Z,101720.80
2019-01-02T06:17:33.526Z,101724.16
2019-01-02T06:20:02.721Z,101731.22
2019-01-02T06:22:32.070Z,101715.05
2019-01-02T06:25:01.105Z,101716.84
2019-01-02T06:27:30.357Z,101716.84
2019-01-02T06:29:59.739Z,101718.30
2019-01-02T06:32:28.793Z,101722.80
2019-01-02T06:34:58.238Z,101720.11
2019-01-02T06:37:27.271Z,101712.64
2019-01-02T06:39:56.626Z,101716.50
2019-01-02T06:42:25.646Z,101717.41
2019-01-02T06:44:54.904Z,101712.83
2019-01-02T06:47:24.143Z,101720.88
2019-01-02T06:49:53.255Z,101726.69
2019-01-02T06:52:22.471Z,101732.48
2019-01-02T06:54:51.714Z,101733.84
2019-01-02T06:57:21.143Z,101742.64
2019-01-02T06:59:50.280Z,101738.17
2019-01-02T07:02:19.490Z,101743.20
2019-01-02T07:04:48.674Z,101755.35
2019-01-02T07:07:17.891Z,101760.16
2019-01-02T07:09:47.070Z,101760.16
2019-01-02T07:12:16.385Z,101760.79
2019-01-02T07:14:45.638Z,101770.66
2019-01-02T07:17:14.719Z,101767.44
2019-01-02T07:19:43.981Z,101767.44
2019-01-02T07:22:13.303Z,101764.55
2019-01-02T07:24:42.451Z,101773.13
2019-01-02T07:27:11.687Z,101778.91
2019-01-02T07:29:40.826Z,101774.93
2019-01-02T07:32:10.111Z,101787.47
2019-01-02T07:35:26.511Z,101788.72
2019-01-02T07:38:19.812Z,101792.58
2019-01-02T07:41:44.760Z,101793.19
2019-01-02T07:44:52.767Z,101793.19
2019-01-02T07:48:01.610Z,101793.67
2019-01-02T07:51:16.534Z,101802.58
2019-01-02T07:54:15.948Z,101802.58
2019-01-02T07:57:10.481Z,101804.98
2019-01-02T08:00:20.561Z,101804.28
2019-01-02T08:03:20.858Z,101817.80
2019-01-02T08:06:30.289Z,101819.41
2019-01-02T08:09:42.253Z,101814.42
2019-01-02T08:12:52.580Z,101803.91
2019-01-02T08:15:40.044Z,101815.44
2019-01-02T08:19:02.197Z,101815.80
2019-01-02T08:22:07.836Z,101819.59
2019-01-02T08:25:20.468Z,101820.08
2019-01-02T08:28:35.410Z,101818.41
2019-01-02T08:31:38.069Z,101824.67
2019-01-02T08:34:47.017Z,101828.69
2019-01-02T08:37:47.326Z,101825.10
2019-01-02T08:40:39.567Z,101838.81
2019-01-02T08:43:38.465Z,101838.81
2019-01-02T08:46:29.215Z,101837.63
2019-01-02T08:49:49.145Z,101839.08
2019-01-02T08:53:06.147Z,101844.62
2019-01-02T08:56:31.566Z,101844.62
2019-01-02T08:59:30.433Z,101855.12
2019-01-02T09:02:17.430Z,101858.02
2019-01-02T09:05:29.611Z,101858.02
2019-01-02T09:08:24.252Z,101869.39
2019-01-02T09:11:34.978Z,101876.16
2019-01-02T09:15:03.612Z,101870.47
2019-01-02T09:18:12.931Z,101878.81
2019-01-02T09:21:18.363Z,101878.81
2019-01-02T09:24:34.673Z,101876.10
2019-01-02T09:27:44.798Z,101878.39
2019-01-02T09:31:23.009Z,101878.39
2019-01-02T09:34:39.064Z,101878.52
2019-01-02T09:37:47.746Z,101880.82
2019-01-02T09:40:47.692Z,101879.97
2019-01-02T09:44:12.990Z,101876.95
2019-01-02T09:47:28.255Z,101876.95
2019-01-02T09:50:47.894Z,101877.45
2019-01-02T09:54:02.827Z,101884.17
2019-01-02T09:56:50.022Z,101883.77
2019-01-02T09:59:46.001Z,101870.84
2019-01-02T10:02:49.856Z,101864.51
2019-01-02T10:05:46.353Z,101869.36
2019-01-02T10:09:16.777Z,101856.59
2019-01-02T10:12:18.799Z,101859.34
2019-01-02T10:15:26.930Z,101870.45
2019-01-02T10:18:15.797Z,101864.22
2019-01-02T10:21:25.966Z,101859.14
2019-01-02T10:24:31.210Z,101858.84
2019-01-02T10:27:51.085Z,101864.78
2019-01-02T10:30:51.627Z,101880.12
2019-01-02T10:33:50.168Z,101879.14
2019-01-02T10:36:55.326Z,101876.09
2019-01-02T10:39:54.947Z,101871.38
2019-01-02T10:43:05.134Z,101877.55
2019-01-02T10:46:17.172Z,101870.75
2019-01-02T10:49:45.518Z,101865.91
2019-01-02T10:53:01.942Z,101854.57
2019-01-02T10:56:07.367Z,101864.33
2019-01-02T10:58:54.048Z,101873.54
2019-01-02T11:01:54.884Z,101872.59
2019-01-02T11:04:52.445Z,101874.55
2019-01-02T11:07:51.611Z,101865.59
2019-01-02T11:10:45.965Z,101857.45
2019-01-02T11:14:02.127Z,101846.36
2019-01-02T11:17:09.313Z,101841.38
2019-01-02T11:20:27.240Z,101832.82
2019-01-02T11:23:40.645Z,101823.23
2019-01-02T11:26:53.808Z,101830.63
2019-01-02T11:29:57.849Z,101832.89
2019-01-02T11:32:51.792Z,101833.67
2019-01-02T11:35:52.614Z,101826.11
2019-01-02T11:38:53.192Z,101812.70
2019-01-02T11:41:41.085Z,101800.23
2019-01-02T11:44:31.862Z,101797.97
2019-01-02T11:47:00.917Z,101801.20
2019-01-02T11:49:30.184Z,101794.88
2019-01-02T11:51:59.450Z,101794.09
2019-01-02T11:54:28.783Z,101798.75
2019-01-02T11:56:57.975Z,101794.61
2019-01-02T11:59:28.550Z,101791.97
2019-01-02T12:01:57.600Z,101786.65
2019-01-02T12:04:26.680Z,101780.86
2019-01-02T12:06:55.720Z,101791.38
2019-01-02T12:09:25.044Z,101786.53
2019-01-02T12:11:54.324Z,101798.31
2019-01-02T12:14:25.246Z,101787.86
2019-01-02T12:16:54.594Z,101791.15
2019-01-02T12:19:24.017Z,101791.53
2019-01-02T12:21:53.092Z,101799.98
2019-01-02T12:24:22.304Z,101792.95
2019-01-02T12:26:51.756Z,101796.95
2019-01-02T12:29:20.882Z,101796.42
2019-01-02T12:31:50.025Z,101791.09
2019-01-02T12:34:19.177Z,101794.06
2019-01-02T12:36:48.295Z,101790.60
2019-01-02T12:39:17.454Z,101783.67
2019-01-02T12:41:46.856Z,101793.36
2019-01-02T12:44:15.909Z,101788.40
2019-01-02T12:46:45.319Z,101790.93
2019-01-02T12:49:14.379Z,101793.28
2019-01-02T12:51:43.764Z,101802.66
2019-01-02T12:54:12.847Z,101806.84
2019-01-02T12:56:42.112Z,101804.20
2019-01-02T12:59:14.464Z,101798.69
2019-01-02T13:02:03.772Z,101807.53
2019-01-02T13:04:58.710Z,101802.73
2019-01-02T13:08:12.940Z,101811.72
2019-01-02T13:11:10.231Z,101819.06
2019-01-02T13:14:18.759Z,101810.58
2019-01-02T13:17:23.558Z,101813.37
2019-01-02T13:20:29.241Z,101815.77
2019-01-02T13:23:26.406Z,101818.72
2019-01-02T13:26:22.482Z,101820.37
2019-01-02T13:29:24.470Z,101821.17
2019-01-02T13:32:24.169Z,101832.84
2019-01-02T13:35:34.641Z,101840.44
2019-01-02T13:38:43.771Z,101840.44
2019-01-02T13:41:56.223Z,101852.64
2019-01-02T13:45:03.582Z,101853.68
2019-01-02T13:47:57.267Z,101861.83
2019-01-02T13:51:09.283Z,101853.33
2019-01-02T13:53:38.561Z,101856.28
2019-01-02T13:56:10.181Z,101853.10
2019-01-02T13:58:39.239Z,101847.55
2019-01-02T14:01:08.283Z,101858.52
2019-01-02T14:03:37.414Z,101858.28
2019-01-02T14:06:06.696Z,101861.83
2019-01-02T14:08:36.017Z,101863.48
2019-01-02T14:11:05.144Z,101869.39
2019-01-02T14:13:34.407Z,101874.33
2019-01-02T14:16:05.472Z,101873.57
2019-01-02T14:18:34.784Z,101877.55
2019-01-02T14:21:03.956Z,101870.05
2019-01-02T14:23:33.225Z,101869.95
2019-01-02T14:26:04.275Z,101865.28
2019-01-02T14:28:33.491Z,101862.16
2019-01-02T14:31:02.953Z,101868.34
2019-01-02T14:33:32.058Z,101871.26
2019-01-02T14:36:01.186Z,101860.78
2019-01-02T14:38:30.425Z,101873.48
2019-01-02T14:40:59.696Z,101880.36
2019-01-02T14:43:28.816Z,101877.56
2019-01-02T14:45:58.003Z,101882.77
2019-01-02T14:48:27.359Z,101889.11
2019-01-02T14:50:56.675Z,101890.31
2019-01-02T14:53:25.895Z,101895.93
2019-01-02T14:55:55.016Z,101897.77
2019-01-02T14:58:24.364Z,101897.67
2019-01-02T15:00:53.482Z,101906.48
2019-01-02T15:03:22.618Z,101909.05
2019-01-02T15:05:51.809Z,101920.67
2019-01-02T15:08:22.343Z,101925.73
2019-01-02T15:10:52.925Z,101929.47
2019-01-02T15:13:22.555Z,101931.78
2019-01-02T15:15:51.684Z,101943.17
2019-01-02T15:18:21.170Z,101932.77
2019-01-02T15:20:50.394Z,101935.20
2019-01-02T15:23:19.502Z,101939.46
2019-01-02T15:25:48.900Z,101950.72
2019-01-02T15:28:18.036Z,101942.97
2019-01-02T15:30:47.172Z,101958.45
2019-01-02T15:33:16.468Z,101959.57
2019-01-02T15:35:48.936Z,101959.57
2019-01-02T15:38:16.756Z,101951.97
2019-01-02T15:40:45.878Z,101960.92
2019-01-02T15:43:15.175Z,101963.71
2019-01-02T15:45:44.349Z,101962.88
2019-01-02T15:48:13.690Z,101956.95
2019-01-02T15:50:43.000Z,101969.98
2019-01-02T15:53:12.128Z,101965.89
2019-01-02T15:55:41.456Z,101973.74
2019-01-02T15:58:10.585Z,101980.38
2019-01-02T16:00:39.678Z,101991.50
2019-01-02T16:03:08.778Z,101991.98
2019-01-02T16:05:39.097Z,101981.56
2019-01-02T16:08:08.441Z,101990.03
2019-01-02T16:10:37.547Z,101995.82
2019-01-02T16:13:06.699Z,102007.16
2019-01-02T16:15:35.855Z,102002.31
2019-01-02T16:18:05.245Z,102002.31
2019-01-02T16:20:34.536Z,102005.82
2019-01-02T16:23:03.806Z,102013.03
2019-01-02T16:25:32.937Z,102015.30
2019-01-02T16:28:02.077Z,102021.58
2019-01-02T16:30:31.351Z,102019.03
2019-01-02T16:33:00.439Z,102027.50
2019-01-02T16:35:29.800Z,102021.30
2019-01-02T16:37:59.360Z,102021.41
2019-01-02T16:40:28.418Z,102023.29
2019-01-02T16:42:57.655Z,102029.17
2019-01-02T16:45:27.035Z,102029.17
2019-01-02T16:47:56.334Z,102032.16
2019-01-02T16:50:25.477Z,102038.32
2019-01-02T16:52:54.559Z,102030.03
2019-01-02T16:55:23.639Z,102042.77
2019-01-02T16:57:52.722Z,102042.70
2019-01-02T17:00:21.774Z,102042.70
2019-01-02T17:02:51.120Z,102051.84
2019-01-02T17:05:20.338Z,102051.84
2019-01-02T17:07:49.655Z,102051.92
2019-01-02T17:10:18.764Z,102049.45
2019-01-02T17:12:48.031Z,102049.45
2019-01-02T17:15:17.286Z,102052.53
2019-01-02T17:17:46.759Z,102051.53
2019-01-02T17:20:15.867Z,102054.17
2019-01-02T17:22:45.011Z,102066.41
2019-01-02T17:25:14.265Z,102061.83
2019-01-02T17:27:43.939Z,102067.55
2019-01-02T17:30:13.659Z,102067.55
2019-01-02T17:32:42.787Z,102067.65
2019-01-02T17:35:12.024Z,102067.65
2019-01-02T17:37:41.204Z,102070.84
2019-01-02T17:40:10.590Z,102062.14
2019-01-02T17:42:39.679Z,102074.10
2019-01-02T17:45:11.229Z,102080.32
2019-01-02T17:47:40.996Z,102080.32
2019-01-02T17:50:11.402Z,102074.69
2019-01-02T17:52:40.548Z,102081.05
2019-01-02T17:55:09.650Z,102079.18
2019-01-02T17:57:38.909Z,102073.39
2019-01-02T18:00:11.115Z,102074.92
2019-01-02T18:02:40.229Z,102083.66
2019-01-02T18:05:09.649Z,102083.66
2019-01-02T18:07:38.744Z,102087.27
2019-01-02T18:10:08.865Z,102082.28
2019-01-02T18:12:38.030Z,102089.02
2019-01-02T18:15:07.763Z,102089.02
2019-01-02T18:17:36.873Z,102086.97
2019-01-02T18:20:07.797Z,102086.97
2019-01-02T18:22:36.930Z,102080.45
2019-01-02T18:25:06.194Z,102080.45
2019-01-02T18:27:35.429Z,102096.33
2019-01-02T18:30:06.547Z,102105.03
2019-01-02T18:32:35.807Z,102105.03
2019-01-02T18:35:05.374Z,102105.73
2019-01-02T18:37:34.455Z,102096.48
2019-01-02T18:40:03.613Z,102106.76
2019-01-02T18:42:32.703Z,102104.02
2019-01-02T18:45:01.911Z,102110.41
2019-01-02T18:47:31.085Z,102121.25
2019-01-02T18:50:00.222Z,102116.62
2019-01-02T18:52:29.707Z,102125.68
2019-01-02T18:54:58.793Z,102125.68
2019-01-02T18:57:28.163Z,102130.55
2019-01-02T18:59:57.314Z,102130.55
2019-01-02T19:02:26.543Z,102132.92
2019-01-02T19:04:55.848Z,102133.88
2019-01-02T19:07:24.971Z,102143.06
2019-01-02T19:09:54.431Z,102144.88
2019-01-02T19:12:23.593Z,102143.94
2019-01-02T19:14:52.696Z,102145.08
2019-01-02T19:17:21.827Z,102146.70
2019-01-02T19:19:51.052Z,102148.87
2019-01-02T19:22:20.459Z,102148.87
2019-01-02T19:24:49.579Z,102143.50
2019-01-02T19:27:18.873Z,102140.95
2019-01-02T19:29:49.912Z,102149.34
2019-01-02T19:32:19.033Z,102147.39
2019-01-02T19:34:48.612Z,102153.05
2019-01-02T19:37:17.743Z,102151.70
2019-01-02T19:39:46.883Z,102155.98
2019-01-02T19:42:16.048Z,102165.41
2019-01-02T19:44:45.167Z,102162.37
2019-01-02T19:47:14.401Z,102161.73
2019-01-02T19:49:43.894Z,102164.55
2019-01-02T19:52:13.106Z,102163.78
2019-01-02T19:54:42.252Z,102170.57
2019-01-02T19:57:11.578Z,102172.25
2019-01-02T19:59:40.812Z,102173.76
2019-01-02T20:02:09.945Z,102177.81
2019-01-02T20:04:39.120Z,102182.91
2019-01-02T20:07:08.244Z,102182.00
2019-01-02T20:09:37.399Z,102177.53
2019-01-02T20:12:06.520Z,102185.36
2019-01-02T20:14:35.821Z,102188.09
2019-01-02T20:17:05.066Z,102181.67
2019-01-02T20:19:34.315Z,102188.37
2019-01-02T20:22:03.447Z,102195.83
2019-01-02T20:24:32.793Z,102193.57
2019-01-02T20:27:02.453Z,102190.91
2019-01-02T20:29:31.738Z,102194.86
2019-01-02T20:32:04.225Z,102189.75
2019-01-02T20:34:31.999Z,102193.23
2019-01-02T20:37:01.449Z,102191.25
2019-01-02T20:39:30.951Z,102194.35
2019-01-02T20:42:00.482Z,102192.17
2019-01-02T20:44:29.742Z,102188.88
2019-01-02T20:46:58.929Z,102195.94
2019-01-02T20:50:17.051Z,102185.45
2019-01-02T20:52:55.244Z,102191.08
2019-01-02T20:58:55.247Z,102187.58
2019-01-02T21:02:03.574Z,102184.22
2019-01-02T21:04:46.081Z,102185.12
2019-01-02T21:07:20.628Z,102184.29
2019-01-02T21:09:52.231Z,102190.39
2019-01-02T21:12:30.715Z,102186.16
2019-01-02T21:15:25.260Z,102182.45
2019-01-02T21:17:55.569Z,102187.91
2019-01-02T21:20:27.234Z,102190.61
2019-01-02T21:22:56.826Z,102188.80
2019-01-02T21:25:26.512Z,102193.68
2019-01-02T21:27:55.692Z,102197.87
2019-01-02T21:30:26.658Z,102193.50
2019-01-02T21:32:56.001Z,102196.80
2019-01-02T21:35:25.239Z,102200.94
2019-01-02T21:37:54.660Z,102203.83
2019-01-02T21:40:23.880Z,102205.94
2019-01-02T21:42:53.149Z,102205.66
2019-01-02T21:45:22.336Z,102207.92
2019-01-02T21:47:51.682Z,102203.64
2019-01-02T21:50:20.833Z,102204.67
2019-01-02T21:52:50.137Z,102205.01
2019-01-02T21:55:19.419Z,102201.76
2019-01-02T21:57:48.937Z,102202.41
2019-01-02T22:00:18.508Z,102200.23
2019-01-02T22:02:47.960Z,102196.85
2019-01-02T22:05:17.522Z,102200.56
2019-01-02T22:07:46.979Z,102201.97
2019-01-02T22:10:16.311Z,102197.64
2019-01-02T22:12:45.658Z,102208.10
2019-01-02T22:15:15.060Z,102209.13
2019-01-02T22:17:44.289Z,102212.05
2019-01-02T22:20:13.382Z,102211.69
2019-01-02T22:22:43.111Z,102211.06
2019-01-02T22:25:12.688Z,102212.22
2019-01-02T22:27:41.840Z,102216.59
2019-01-02T22:30:11.267Z,102217.69
2019-01-02T22:32:40.528Z,102219.95
2019-01-02T22:35:10.571Z,102215.22
2019-01-02T22:37:39.758Z,102211.64
2019-01-02T22:40:09.615Z,102213.20
2019-01-02T22:42:38.928Z,102211.02
2019-01-02T22:45:08.227Z,102213.90
2019-01-02T22:47:37.580Z,102226.54
2019-01-02T22:50:08.750Z,102232.67
2019-01-02T22:52:37.986Z,102226.89
2019-01-02T22:55:07.220Z,102230.00
2019-01-02T22:57:36.513Z,102230.87
2019-01-02T23:00:09.296Z,102236.92
2019-01-02T23:02:52.211Z,102238.88
2019-01-02T23:05:35.038Z,102239.13
2019-01-02T23:08:23.645Z,102243.55
2019-01-02T23:11:11.079Z,102244.34
2019-01-02T23:13:59.325Z,102246.96
2019-01-02T23:16:46.087Z,102254.20
2019-01-02T23:19:28.547Z,102256.84
2019-01-02T23:22:15.282Z,102258.62
2019-01-02T23:25:02.241Z,102267.59
2019-01-02T23:27:53.613Z,102273.87
2019-01-02T23:30:41.188Z,102273.00
2019-01-02T23:33:32.127Z,102279.36
2019-01-02T23:36:26.204Z,102282.86
2019-01-02T23:39:13.068Z,102281.69
2019-01-02T23:42:00.002Z,102281.69
2019-01-02T23:44:46.956Z,102289.81
2019-01-02T23:47:37.814Z,102294.06
2019-01-02T23:50:22.459Z,102294.44
2019-01-02T23:53:09.596Z,102295.61
2019-01-02T23:56:03.972Z,102296.47
2019-01-02T23:58:56.091Z,102295.16
